• Join FlightAware (Why Join?)
  • Login
  • US Flag 
02:41PM EDT


 

Airport Tracker/Info


-or-


 

Live Flight TrackerFlight Track Log ✈ N775NC ✈ 16-Aug-2013 ✈ KATL - KJAN

Flight Track Log - Related Links

Times and Time Zones

All times are in EDT time to prevent confusion due to time zone crossing. See the N775NC flight status page for this flight to view local times or setup timezone preferences in your user account.

Time Position Orientation Groundspeed Altitude Reporting Facility
EDT Latitude Longitude Course Direction KTS MPH feet Rate Location/Type
12:22PM 33.6500 -84.3667 259° West 171 197 2,800  Level Atlanta TRACON
12:23PM 33.7000 -84.3167 40° Northeast 266 306 4,500 2,160 Climbing Atlanta TRACON
12:24PM 33.7667 -84.2833 23° Northeast 279 321 7,200 2,040 Climbing Atlanta TRACON
12:25PM 33.5468 -84.9058 260° West  Level FlightAware Approximate
12:26PM 33.5292 -85.0290 260° West  Level FlightAware Approximate
12:26PM 33.8058 -84.4989 282° West 313 360 11,800  Level Atlanta Center
12:27PM 33.5108 -85.1520 259° West  Level FlightAware Approximate
12:27PM 33.7636 -84.6086 245° Southwest 320 368 14,100  Level Atlanta Center
12:28PM 33.7089 -84.7056 236° Southwest 326 375 16,300 1,860 Climbing Atlanta Center
12:29PM 33.6519 -84.8025 235° Southwest 349 402 17,900 1,740 Climbing Atlanta Center
12:30PM 33.5931 -84.8992 234° Southwest 374 430 19,800 1,680 Climbing Atlanta Center
12:31PM 33.5422 -85.0033 240° Southwest 374 430 21,300 1,500 Climbing Atlanta Center
12:32PM 33.5244 -85.1278 260° West 368 423 22,800 1,560 Climbing Atlanta Center
12:33PM 33.5003 -85.2494 257° West 379 436 24,500 1,500 Climbing Atlanta Center
12:34PM 33.4822 -85.3764 260° West 384 442 25,800 1,140 Climbing Atlanta Center
12:35PM 33.4622 -85.4881 258° West 384 442 26,800 900 Climbing Atlanta Center
12:36PM 33.4461 -85.6147 261° West 389 448 27,700 600 Climbing Atlanta Center
12:37PM 33.4256 -85.7464 259° West 394 453 28,000 120 Climbing Atlanta Center
12:38PM 33.3986 -85.8725 256° West 400 460 28,000  Level Atlanta Center
12:39PM 33.3756 -86.0089 259° West 411 473 28,000  Level Atlanta Center
12:40PM 33.3547 -86.1428 259° West 411 473 28,000  Level Atlanta Center
12:41PM 33.3336 -86.2742 259° West 411 473 28,000  Level Atlanta Center
12:42PM 33.3103 -86.4078 258° West 411 473 28,000  Level Atlanta Center
12:43PM 33.2867 -86.5436 258° West 411 473 28,000  Level Atlanta Center
12:44PM 33.2672 -86.6747 260° West 411 473 28,000  Level Atlanta Center
12:45PM 33.2433 -86.8156 259° West 418 481 28,000  Level Atlanta Center
12:46PM 33.2214 -86.9467 259° West 418 481 28,000  Level Atlanta Center
12:47PM 33.1619 -87.0786 242° Southwest 411 473 28,000  Level Atlanta Center
12:48PM 33.1150 -87.2058 246° West 416 479 28,000  Level Atlanta Center
12:49PM 33.0617 -87.3278 242° Southwest 416 479 28,000  Level Atlanta Center
12:50PM 33.0192 -87.4303 244° Southwest 422 486 28,000  Level Atlanta Center
12:51PM 32.9550 -87.5639 240° Southwest 422 486 28,000  Level Atlanta Center
12:53PM 32.8614 -87.7431 238° Southwest 432 497 28,000  Level Memphis Center
12:54PM 32.8014 -87.8636 239° Southwest 432 497 28,000  Level Memphis Center
12:55PM 32.7494 -87.9861 243° Southwest 432 497 28,000  Level Memphis Center
12:56PM 32.7039 -88.1108 247° West 419 482 28,000 -600 Level Memphis Center
12:57PM 32.6558 -88.2403 246° West 419 482 26,900 -1,020 Descending Memphis Center
12:58PM 32.6036 -88.3622 243° Southwest 424 488 26,000 -1,020 Descending Memphis Center
12:59PM 32.5408 -88.4769 237° Southwest 419 482 24,900 -1,200 Descending Memphis Center
01:00PM 32.4736 -88.5917 235° Southwest 425 489 23,600 -1,560 Descending Memphis Center
01:01PM 32.4186 -88.7011 239° Southwest 430 495 21,800 -1,500 Descending Memphis Center
01:02PM 32.3808 -88.8347 252° West 430 495 20,600 -1,140 Descending Memphis Center
01:03PM 32.3447 -88.9681 252° West 430 495 19,600 -840 Descending Memphis Center
01:04PM 32.3378 -89.0983 266° West 415 478 19,000 -360 Descending Memphis Center
01:05PM 32.3433 -89.2311 273° West 410 472 18,900 -1,800 Descending Memphis Center
01:06PM 32.3547 -89.3614 276° West 399 459 15,500 -3,420 Descending Memphis Center
01:07PM 32.3767 -89.4914 281° West 404 465 12,100 -2,220 Descending Memphis Center
01:08PM 32.4025 -89.6019 285° West 386 444 11,100 -1,140 Descending Memphis Center
01:09PM 32.4258 -89.6953 287° West 339 390 9,900 -1,740 Descending Memphis Center
01:10PM 32.4472 -89.7814 286° West 299 344 7,700 -2,340 Descending Memphis Center
01:11PM 32.4664 -89.8697 284° West 281 323 5,300 -2,100 Descending Memphis Center
01:12PM 32.4833 -89.9508 284° West 268 308 3,600 -1,440 Descending Memphis Center
01:13PM 32.4919 -90.0200 278° West 243 280 2,500 -600 Descending Memphis Center
01:14PM 32.4481 -90.0544 214° Southwest 181 208 2,500 -300 Level Memphis Center
01:15PM 32.4022 -90.0867 211° Southwest 175 201 1,900 -720 Descending Memphis Center
01:16PM 32.3586 -90.1039 198° South 182 209 1,100 -600 Descending Memphis Center
01:17PM 32.3147 -90.1017 178° South 153 176 700 -420 Descending Memphis Center